Time;durP1;ratioP1;P1;durP2;ratioP2;P2;SDS_P1;SDS_P2;PMS_P1;PMS_P2;Temp;Humidity;BMP_temperature;BMP_pressure;BME280_temperature;BME280_humidity;BME280_pressure;Samples;Min_cycle;Max_cycle;Signal;HPM_P1;HPM_P2
2022/06/02 00:01:22;;;;;;;17.80;7.57;;;;;;;;;;4962983;28;20070;-72
2022/06/02 00:04:07;;;;;;;20.08;7.57;;;;;;;;;;4966637;28;20050;-70
2022/06/02 00:06:50;;;;;;;13.90;7.43;;;;;;;;;;4967149;28;20047;-70
2022/06/02 00:09:41;;;;;;;20.43;8.63;;;;;;;;;;4967576;28;20075;-70
2022/06/02 00:12:51;;;;;;;19.65;8.00;;;;;;;;;;4964698;28;20069;-72
2022/06/02 00:15:19;;;;;;;19.75;8.60;;;;;;;;;;4965750;28;20101;-72
2022/06/02 00:18:00;;;;;;;17.77;7.82;;;;;;;;;;4965837;28;20051;-71
2022/06/02 00:20:57;;;;;;;22.17;8.05;;;;;;;;;;4966095;28;20050;-71
2022/06/02 00:23:47;;;;;;;23.90;9.50;;;;;;;;;;4967047;28;20047;-71
2022/06/02 00:26:22;;;;;;;19.63;9.05;;;;;;;;;;4965883;28;20555;-72
2022/06/02 00:29:06;;;;;;;20.70;9.48;;;;;;;;;;4966412;28;20053;-68
2022/06/02 00:31:47;;;;;;;22.98;8.88;;;;;;;;;;4969586;28;20130;-71
2022/06/02 00:34:35;;;;;;;19.08;9.15;;;;;;;;;;4966839;28;20058;-69
2022/06/02 00:37:22;;;;;;;25.27;9.82;;;;;;;;;;4966719;28;20055;-73
2022/06/02 00:39:49;;;;;;;21.33;9.90;;;;;;;;;;4969066;28;20633;-68
2022/06/02 00:42:34;;;;;;;25.85;9.70;;;;;;;;;;4966786;28;20053;-70
2022/06/02 00:45:06;;;;;;;19.33;9.07;;;;;;;;;;4965307;28;20085;-70
2022/06/02 00:47:57;;;;;;;23.58;9.65;;;;;;;;;;4966279;28;20113;-69
2022/06/02 00:50:23;;;;;;;20.40;9.93;;;;;;;;;;4966248;28;20981;-70
2022/06/02 00:52:56;;;;;;;21.58;8.95;;;;;;;;;;4965845;28;20050;-70
2022/06/02 00:58:42;;;;;;;19.50;9.60;;;;;;;;;;4965436;28;20177;-71
2022/06/02 01:01:18;;;;;;;22.05;9.95;;;;;;;;;;4965132;28;20038;-68
2022/06/02 01:03:47;;;;;;;20.58;10.13;;;;;;;;;;4961592;28;20062;-70
2022/06/02 01:06:20;;;;;;;23.48;11.13;;;;;;;;;;4960526;28;20493;-69
2022/06/02 01:09:21;;;;;;;20.83;11.25;;;;;;;;;;4963372;28;20438;-71
2022/06/02 01:12:11;;;;;;;20.20;10.80;;;;;;;;;;4966563;28;20062;-69
2022/06/02 01:14:58;;;;;;;31.58;13.50;;;;;;;;;;4962504;28;20080;-71
2022/06/02 01:17:44;;;;;;;22.60;13.55;;;;;;;;;;4962303;28;20047;-70
2022/06/02 01:20:30;;;;;;;27.67;13.70;;;;;;;;;;4964492;28;20053;-70
2022/06/02 01:23:18;;;;;;;26.30;13.57;;;;;;;;;;4964542;28;20073;-69
2022/06/02 01:26:07;;;;;;;26.35;15.18;;;;;;;;;;4960107;28;20058;-70
2022/06/02 01:28:54;;;;;;;30.13;14.98;;;;;;;;;;4963348;28;20412;-71
2022/06/02 01:31:34;;;;;;;31.92;15.80;;;;;;;;;;4960500;28;20468;-69
2022/06/02 01:34:22;;;;;;;29.05;18.02;;;;;;;;;;4963187;28;20130;-69
2022/06/02 01:37:05;;;;;;;28.00;17.30;;;;;;;;;;4962408;28;20074;-72
2022/06/02 01:40:02;;;;;;;28.35;18.00;;;;;;;;;;4964275;28;20510;-71
2022/06/02 01:42:46;;;;;;;35.13;19.77;;;;;;;;;;4966442;28;20058;-73
2022/06/02 01:45:16;;;;;;;39.27;20.97;;;;;;;;;;4960367;28;20046;-70
2022/06/02 01:47:46;;;;;;;35.47;22.77;;;;;;;;;;4963862;28;20137;-71
2022/06/02 01:50:25;;;;;;;41.30;24.00;;;;;;;;;;4963354;28;20132;-71
2022/06/02 01:53:00;;;;;;;43.08;22.30;;;;;;;;;;4961666;28;20058;-71
2022/06/02 01:55:34;;;;;;;35.78;20.55;;;;;;;;;;4962224;28;20058;-70
2022/06/02 01:58:32;;;;;;;35.50;19.70;;;;;;;;;;4962421;28;20136;-68
2022/06/02 02:01:16;;;;;;;27.92;18.17;;;;;;;;;;4948891;28;20737;-73
2022/06/02 02:04:15;;;;;;;32.25;19.25;;;;;;;;;;4961509;28;20061;-71
2022/06/02 02:07:04;;;;;;;30.90;19.17;;;;;;;;;;4957974;28;20075;-68
2022/06/02 02:09:49;;;;;;;34.40;17.77;;;;;;;;;;4964528;28;20069;-69
2022/06/02 02:12:37;;;;;;;27.75;17.95;;;;;;;;;;4966533;28;20145;-71
2022/06/02 02:15:15;;;;;;;35.38;18.38;;;;;;;;;;4963984;28;20049;-71
2022/06/02 02:18:20;;;;;;;33.90;18.63;;;;;;;;;;4966828;28;20062;-70
2022/06/02 02:21:18;;;;;;;34.50;19.42;;;;;;;;;;4962573;28;20047;-70
2022/06/02 02:24:19;;;;;;;33.88;17.88;;;;;;;;;;4964149;28;20051;-70
2022/06/02 02:26:58;;;;;;;31.30;17.83;;;;;;;;;;4912798;29;20078;-71
2022/06/02 02:29:53;;;;;;;30.08;16.88;;;;;;;;;;4908786;29;20168;-69
2022/06/02 02:33:07;;;;;;;32.38;19.05;;;;;;;;;;4906710;29;20077;-70
2022/06/02 02:35:56;;;;;;;35.88;18.27;;;;;;;;;;4911631;29;20055;-69
2022/06/02 02:38:48;;;;;;;32.72;17.80;;;;;;;;;;4899108;29;20056;-73
2022/06/02 02:41:32;;;;;;;35.40;18.75;;;;;;;;;;4912922;29;20048;-70
2022/06/02 02:44:17;;;;;;;29.30;18.60;;;;;;;;;;4911608;29;20067;-71
2022/06/02 02:46:58;;;;;;;32.63;16.98;;;;;;;;;;4913418;29;20048;-71
2022/06/02 02:49:29;;;;;;;32.17;18.25;;;;;;;;;;4915300;29;20124;-70
2022/06/02 02:52:02;;;;;;;30.77;18.33;;;;;;;;;;4913056;29;20086;-71
2022/06/02 02:54:42;;;;;;;35.85;20.42;;;;;;;;;;4908681;29;21040;-70
2022/06/02 02:57:17;;;;;;;35.95;19.30;;;;;;;;;;4915247;29;20552;-70
2022/06/02 02:59:55;;;;;;;33.55;19.38;;;;;;;;;;4896779;29;20084;-69
2022/06/02 03:02:39;;;;;;;31.60;18.75;;;;;;;;;;4938086;28;20142;-70
2022/06/02 03:05:32;;;;;;;34.08;19.05;;;;;;;;;;4962898;28;20046;-70
2022/06/02 03:08:27;;;;;;;38.22;18.95;;;;;;;;;;4969244;28;20065;-70
2022/06/02 03:11:00;;;;;;;38.25;20.38;;;;;;;;;;4968926;28;20121;-72
2022/06/02 03:13:39;;;;;;;36.55;20.98;;;;;;;;;;4964254;28;20426;-69
2022/06/02 03:16:07;;;;;;;36.72;19.15;;;;;;;;;;4965027;28;20051;-71
2022/06/02 03:18:52;;;;;;;32.30;19.85;;;;;;;;;;4966122;28;20066;-72
2022/06/02 03:21:36;;;;;;;37.55;19.95;;;;;;;;;;4967653;28;20138;-69
2022/06/02 03:24:43;;;;;;;37.88;20.65;;;;;;;;;;4965523;28;20638;-70
2022/06/02 03:27:28;;;;;;;35.42;20.48;;;;;;;;;;4943865;28;20076;-70
2022/06/02 03:29:59;;;;;;;35.13;20.73;;;;;;;;;;4964680;28;20546;-70
2022/06/02 03:32:51;;;;;;;38.25;21.40;;;;;;;;;;4966044;28;20512;-70
2022/06/02 03:35:58;;;;;;;38.22;22.10;;;;;;;;;;4957949;28;20058;-69
2022/06/02 03:38:33;;;;;;;39.70;23.27;;;;;;;;;;4966197;28;20575;-70
2022/06/02 03:41:07;;;;;;;43.95;23.70;;;;;;;;;;4965103;28;20472;-70
2022/06/02 03:43:51;;;;;;;36.80;23.60;;;;;;;;;;4964271;28;20059;-71
2022/06/02 03:46:35;;;;;;;39.30;23.38;;;;;;;;;;4963230;28;20476;-70
2022/06/02 03:49:29;;;;;;;35.63;22.58;;;;;;;;;;4968206;28;20152;-75
2022/06/02 03:52:00;;;;;;;37.20;23.73;;;;;;;;;;4965340;28;20126;-70
2022/06/02 03:55:07;;;;;;;41.85;25.50;;;;;;;;;;4966410;28;20511;-71
2022/06/02 03:57:51;;;;;;;39.30;23.85;;;;;;;;;;4908195;29;20564;-72
2022/06/02 04:00:23;;;;;;;35.65;19.40;;;;;;;;;;4903369;29;20052;-69
2022/06/02 04:03:02;;;;;;;30.90;17.20;;;;;;;;;;4900908;29;20056;-68
2022/06/02 04:05:59;;;;;;;33.50;15.50;;;;;;;;;;4901565;29;21544;-71
2022/06/02 04:09:03;;;;;;;26.92;14.18;;;;;;;;;;4906515;29;20150;-71
2022/06/02 04:11:29;;;;;;;27.15;14.02;;;;;;;;;;4903020;29;20064;-70
2022/06/02 04:14:11;;;;;;;25.75;14.30;;;;;;;;;;4903271;29;20163;-71
2022/06/02 04:17:12;;;;;;;24.02;12.18;;;;;;;;;;4905888;29;20064;-70
2022/06/02 04:20:35;;;;;;;29.50;14.05;;;;;;;;;;4819812;29;20054;-70
2022/06/02 04:23:26;;;;;;;26.90;13.38;;;;;;;;;;4822188;29;20087;-69
2022/06/02 04:26:21;;;;;;;25.52;13.95;;;;;;;;;;4820068;29;20057;-72
2022/06/02 04:29:04;;;;;;;25.67;14.13;;;;;;;;;;4816510;29;20054;-70
2022/06/02 04:31:42;;;;;;;26.63;13.88;;;;;;;;;;4821158;29;20058;-70
2022/06/02 04:34:28;;;;;;;27.13;15.00;;;;;;;;;;4864647;29;20061;-70
2022/06/02 04:37:03;;;;;;;30.42;15.43;;;;;;;;;;4873325;29;20372;-70
2022/06/02 04:39:40;;;;;;;29.05;15.32;;;;;;;;;;4865797;29;20729;-71
2022/06/02 04:42:30;;;;;;;30.88;17.70;;;;;;;;;;4871094;29;20069;-70
2022/06/02 04:45:20;;;;;;;31.20;17.10;;;;;;;;;;4867920;29;20149;-70
2022/06/02 04:48:12;;;;;;;32.85;16.58;;;;;;;;;;4868060;29;20180;-72
2022/06/02 04:50:46;;;;;;;30.83;17.17;;;;;;;;;;4862265;29;20069;-71
2022/06/02 04:53:37;;;;;;;36.05;18.00;;;;;;;;;;4868111;29;20084;-74
2022/06/02 04:56:26;;;;;;;29.90;16.83;;;;;;;;;;4927184;28;20726;-71
2022/06/02 04:59:18;;;;;;;30.25;18.33;;;;;;;;;;4942961;28;20496;-72
2022/06/02 05:02:11;;;;;;;40.25;18.60;;;;;;;;;;4959543;28;20059;-72
2022/06/02 05:04:53;;;;;;;38.78;18.73;;;;;;;;;;4962459;28;20424;-73
2022/06/02 05:07:47;;;;;;;36.63;20.57;;;;;;;;;;4962311;28;20138;-72
2022/06/02 05:10:29;;;;;;;43.13;22.25;;;;;;;;;;4965444;28;20308;-73
2022/06/02 05:13:10;;;;;;;41.70;22.70;;;;;;;;;;4964406;28;20527;-70
2022/06/02 05:16:08;;;;;;;37.90;21.83;;;;;;;;;;4961949;28;20102;-74
2022/06/02 05:18:55;;;;;;;39.90;23.42;;;;;;;;;;4964611;28;20065;-74
2022/06/02 05:21:58;;;;;;;38.10;24.60;;;;;;;;;;4960245;28;20467;-73
2022/06/02 05:25:01;;;;;;;37.38;24.15;;;;;;;;;;4935237;28;20242;-73
2022/06/02 05:27:54;;;;;;;37.97;25.05;;;;;;;;;;4961734;28;20598;-72
2022/06/02 05:30:50;;;;;;;43.10;27.23;;;;;;;;;;4960790;28;20050;-71
2022/06/02 05:33:32;;;;;;;45.67;26.35;;;;;;;;;;4959744;28;20091;-70
2022/06/02 05:36:20;;;;;;;49.60;27.50;;;;;;;;;;4962204;28;20058;-71
2022/06/02 05:39:21;;;;;;;41.92;26.60;;;;;;;;;;4961769;28;20050;-71
2022/06/02 05:42:27;;;;;;;49.03;24.90;;;;;;;;;;4961967;28;20120;-71
2022/06/02 05:45:27;;;;;;;43.63;24.35;;;;;;;;;;4962799;28;20054;-71
2022/06/02 05:48:07;;;;;;;45.70;25.67;;;;;;;;;;4962301;28;20055;-72
2022/06/02 05:50:44;;;;;;;48.50;26.02;;;;;;;;;;4961886;28;20066;-70
2022/06/02 05:53:28;;;;;;;45.92;26.65;;;;;;;;;;4960015;28;20047;-71
2022/06/02 05:56:14;;;;;;;45.53;26.98;;;;;;;;;;4961432;28;20117;-72
2022/06/02 05:59:23;;;;;;;45.30;28.15;;;;;;;;;;4960309;28;20046;-73
2022/06/02 06:02:08;;;;;;;42.20;26.35;;;;;;;;;;4958622;28;20058;-70
2022/06/02 06:04:46;;;;;;;61.53;29.90;;;;;;;;;;4964653;28;20065;-71
2022/06/02 06:07:43;;;;;;;50.55;29.52;;;;;;;;;;4960452;28;20046;-70
2022/06/02 06:10:16;;;;;;;47.35;26.40;;;;;;;;;;4962966;28;20042;-72
2022/06/02 06:12:56;;;;;;;47.58;27.65;;;;;;;;;;4959937;28;20054;-70
2022/06/02 06:15:34;;;;;;;55.63;28.52;;;;;;;;;;4962815;28;20050;-72
2022/06/02 06:18:43;;;;;;;49.38;26.63;;;;;;;;;;4960574;28;20051;-71
2022/06/02 06:21:16;;;;;;;41.92;26.65;;;;;;;;;;4960403;28;20491;-70
2022/06/02 06:24:09;;;;;;;45.17;26.25;;;;;;;;;;4960870;28;20401;-72
2022/06/02 06:26:59;;;;;;;49.75;27.83;;;;;;;;;;4963830;28;20141;-71
2022/06/02 06:29:31;;;;;;;48.97;27.75;;;;;;;;;;4962846;28;20050;-69
2022/06/02 06:32:06;;;;;;;45.92;26.75;;;;;;;;;;4964527;28;20109;-75
2022/06/02 06:34:57;;;;;;;49.55;27.52;;;;;;;;;;4963319;28;20082;-71
2022/06/02 06:38:01;;;;;;;46.28;26.98;;;;;;;;;;4964020;28;20088;-73
2022/06/02 06:40:42;;;;;;;46.47;27.30;;;;;;;;;;4959577;28;20058;-72
2022/06/02 06:43:13;;;;;;;47.22;27.20;;;;;;;;;;4959564;28;20047;-72
2022/06/02 06:45:55;;;;;;;43.78;27.27;;;;;;;;;;4960641;28;20055;-75
2022/06/02 06:48:52;;;;;;;51.28;27.63;;;;;;;;;;4961970;28;20054;-74
2022/06/02 06:51:21;;;;;;;46.03;26.33;;;;;;;;;;4952702;28;20596;-70
2022/06/02 06:54:21;;;;;;;42.33;26.25;;;;;;;;;;4957391;28;20117;-71
2022/06/02 06:56:59;;;;;;;51.80;27.13;;;;;;;;;;4960345;28;20138;-69
2022/06/02 06:59:45;;;;;;;51.63;27.70;;;;;;;;;;4961202;28;20139;-73
2022/06/02 07:02:53;;;;;;;46.10;27.33;;;;;;;;;;4961897;28;20066;-72
2022/06/02 07:05:44;;;;;;;43.95;27.27;;;;;;;;;;4906977;29;20060;-70
2022/06/02 07:08:33;;;;;;;43.35;26.48;;;;;;;;;;4905173;29;20071;-70
2022/06/02 07:14:51;;;;;;;53.97;26.58;;;;;;;;;;4907163;29;20063;-71
2022/06/02 07:17:28;;;;;;;49.83;25.15;;;;;;;;;;4880573;29;20131;-72
2022/06/02 07:20:12;;;;;;;55.47;26.48;;;;;;;;;;4869616;29;20084;-69
2022/06/02 07:23:06;;;;;;;53.95;25.85;;;;;;;;;;4891881;29;20152;-68
2022/06/02 07:25:44;;;;;;;49.70;26.80;;;;;;;;;;4887872;29;20060;-69
2022/06/02 07:28:31;;;;;;;49.60;25.70;;;;;;;;;;4887981;29;20396;-72
2022/06/02 07:31:02;;;;;;;45.80;25.80;;;;;;;;;;4889724;29;20126;-71
2022/06/02 07:33:40;;;;;;;54.75;25.20;;;;;;;;;;4893055;29;20075;-69
2022/06/02 07:36:27;;;;;;;43.78;25.58;;;;;;;;;;4888417;29;20867;-69
2022/06/02 07:39:18;;;;;;;41.47;26.83;;;;;;;;;;4890449;29;20466;-71
2022/06/02 07:42:01;;;;;;;41.65;25.70;;;;;;;;;;4899018;29;20103;-70
2022/06/02 07:44:54;;;;;;;62.30;28.10;;;;;;;;;;4942197;28;20413;-71
2022/06/02 07:47:39;;;;;;;49.03;26.77;;;;;;;;;;4943038;28;20142;-73
2022/06/02 07:50:23;;;;;;;45.92;26.40;;;;;;;;;;4940390;28;20055;-71
2022/06/02 07:53:00;;;;;;;;;;;;;;;;;;4961393;28;20069;-72
2022/06/02 07:55:52;;;;;;;44.92;24.10;;;;;;;;;;4961744;28;20058;-72
2022/06/02 07:58:21;;;;;;;60.55;26.95;;;;;;;;;;4950795;28;20074;-71
2022/06/02 08:00:57;;;;;;;55.58;26.17;;;;;;;;;;4963316;28;20070;-70
2022/06/02 08:03:48;;;;;;;44.00;23.75;;;;;;;;;;4960828;28;20050;-74
2022/06/02 08:06:39;;;;;;;38.13;23.50;;;;;;;;;;4966905;28;20421;-75
2022/06/02 08:09:32;;;;;;;37.63;23.30;;;;;;;;;;4966200;28;20914;-74
2022/06/02 08:12:17;;;;;;;38.13;23.33;;;;;;;;;;4963242;28;20105;-72
2022/06/02 08:14:43;;;;;;;;;;;;;;;;;;4962689;28;20304;-70
2022/06/02 08:17:22;;;;;;;34.85;20.67;;;;;;;;;;4966323;28;19933;-77
2022/06/02 08:19:50;;;;;;;33.10;19.90;;;;;;;;;;4967857;28;20468;-75
2022/06/02 08:22:24;;;;;;;28.98;18.15;;;;;;;;;;4963295;28;20147;-74
2022/06/02 08:24:55;;;;;;;37.42;20.00;;;;;;;;;;4961026;28;20519;-72
2022/06/02 08:27:31;;;;;;;34.70;19.00;;;;;;;;;;4962700;28;20057;-72
2022/06/02 08:30:18;;;;;;;31.50;19.92;;;;;;;;;;4960503;28;20572;-72
2022/06/02 08:33:18;;;;;;;31.55;18.30;;;;;;;;;;4955950;28;20443;-73
2022/06/02 08:36:24;;;;;;;30.00;18.02;;;;;;;;;;4963448;28;20380;-74
2022/06/02 08:39:05;;;;;;;35.15;17.65;;;;;;;;;;4961663;28;20056;-75
2022/06/02 08:41:56;;;;;;;35.08;19.27;;;;;;;;;;4966424;28;20585;-76
2022/06/02 08:44:37;;;;;;;29.50;17.83;;;;;;;;;;4960592;28;20043;-76
2022/06/02 08:47:24;;;;;;;34.15;18.33;;;;;;;;;;4964245;28;20634;-76
2022/06/02 08:50:11;;;;;;;34.17;17.67;;;;;;;;;;4963735;28;20057;-76
2022/06/02 08:53:08;;;;;;;26.38;15.73;;;;;;;;;;4965163;28;20636;-74
2022/06/02 08:55:49;;;;;;;28.00;17.10;;;;;;;;;;4964058;28;20132;-75
2022/06/02 08:58:42;;;;;;;24.80;15.27;;;;;;;;;;4961528;28;20508;-74
2022/06/02 09:01:14;;;;;;;30.90;15.93;;;;;;;;;;4962242;28;20051;-77
2022/06/02 09:03:55;;;;;;;28.65;14.20;;;;;;;;;;4964966;28;20076;-72
2022/06/02 09:07:04;;;;;;;23.27;14.18;;;;;;;;;;4963334;28;20051;-74
2022/06/02 09:09:53;;;;;;;28.35;14.98;;;;;;;;;;4963725;28;20093;-73
2022/06/02 09:12:41;;;;;;;32.58;14.63;;;;;;;;;;4962057;28;20055;-78
2022/06/02 09:15:36;;;;;;;36.88;14.02;;;;;;;;;;4964135;28;20562;-74
2022/06/02 09:18:17;;;;;;;27.38;12.73;;;;;;;;;;4945249;28;20129;-73
2022/06/02 09:21:08;;;;;;;24.35;12.00;;;;;;;;;;4957907;28;20050;-73
2022/06/02 09:24:04;;;;;;;23.35;10.18;;;;;;;;;;4961962;28;20058;-73
2022/06/02 09:26:45;;;;;;;24.15;10.70;;;;;;;;;;4963340;28;20055;-73
2022/06/02 09:29:42;;;;;;;22.48;10.50;;;;;;;;;;4962687;28;20100;-75
2022/06/02 09:32:33;;;;;;;19.92;9.25;;;;;;;;;;4967435;28;20062;-74
2022/06/02 09:35:22;;;;;;;18.83;9.60;;;;;;;;;;4962375;28;20094;-76
2022/06/02 09:38:09;;;;;;;20.60;9.18;;;;;;;;;;4963723;28;20038;-74
2022/06/02 09:40:44;;;;;;;20.40;9.02;;;;;;;;;;4967879;28;20054;-74
2022/06/02 09:43:34;;;;;;;17.45;9.00;;;;;;;;;;4966240;28;20046;-74
2022/06/02 09:46:34;;;;;;;19.52;9.48;;;;;;;;;;4964002;28;20038;-76
2022/06/02 09:49:18;;;;;;;20.08;8.80;;;;;;;;;;4962211;28;20053;-76
2022/06/02 09:51:47;;;;;;;15.18;7.63;;;;;;;;;;4957386;28;20442;-74
2022/06/02 09:54:21;;;;;;;19.63;8.20;;;;;;;;;;4965357;28;20500;-75
2022/06/02 09:57:55;;;;;;;17.88;8.23;;;;;;;;;;4967599;28;20047;-78
2022/06/02 10:00:23;;;;;;;20.00;8.60;;;;;;;;;;4966125;28;20047;-75
2022/06/02 10:03:15;;;;;;;24.08;9.10;;;;;;;;;;4921325;28;20051;-76
2022/06/02 10:05:46;;;;;;;19.88;8.40;;;;;;;;;;4946917;28;20058;-76
2022/06/02 10:08:50;;;;;;;17.90;7.28;;;;;;;;;;4961360;28;20054;-75
2022/06/02 10:11:42;;;;;;;20.90;6.22;;;;;;;;;;4956194;28;20396;-76
2022/06/02 10:14:20;;;;;;;16.05;6.40;;;;;;;;;;4957700;28;20051;-72
2022/06/02 10:17:24;;;;;;;18.55;5.53;;;;;;;;;;4961146;28;20491;-74
2022/06/02 10:20:21;;;;;;;12.23;5.88;;;;;;;;;;4960865;28;20150;-72
2022/06/02 10:23:05;;;;;;;14.48;5.68;;;;;;;;;;4965418;28;20142;-73
2022/06/02 10:25:40;;;;;;;;;;;;;;;;;;4962298;28;20061;-72
2022/06/02 10:28:14;;;;;;;13.95;5.95;;;;;;;;;;4963063;28;20025;-75
2022/06/02 10:31:16;;;;;;;14.75;6.20;;;;;;;;;;4964186;28;20476;-76
2022/06/02 10:34:19;;;;;;;14.00;6.28;;;;;;;;;;4963070;28;20054;-77
2022/06/02 10:36:57;;;;;;;18.95;5.60;;;;;;;;;;4959688;28;20043;-75
2022/06/02 10:39:40;;;;;;;13.02;6.82;;;;;;;;;;4963707;28;20093;-73
2022/06/02 10:42:40;;;;;;;17.00;5.70;;;;;;;;;;4963747;28;20068;-71
2022/06/02 10:45:21;;;;;;;11.63;5.45;;;;;;;;;;4961225;28;20520;-73
2022/06/02 10:47:47;;;;;;;12.45;5.60;;;;;;;;;;4980664;28;20057;-73
2022/06/02 10:50:21;;;;;;;12.05;5.35;;;;;;;;;;4961145;28;20051;-74
2022/06/02 10:53:23;;;;;;;15.98;5.88;;;;;;;;;;4961440;28;20058;-74
2022/06/02 10:56:01;;;;;;;12.57;5.43;;;;;;;;;;4968051;28;20066;-74
2022/06/02 10:58:39;;;;;;;16.83;6.05;;;;;;;;;;4967432;28;20082;-75
2022/06/02 11:01:36;;;;;;;14.82;5.63;;;;;;;;;;4969750;28;20505;-77
2022/06/02 11:04:16;;;;;;;12.85;5.35;;;;;;;;;;4965875;28;20051;-75
2022/06/02 11:07:03;;;;;;;9.63;4.75;;;;;;;;;;4967124;28;20117;-76
2022/06/02 11:09:53;;;;;;;11.77;4.97;;;;;;;;;;4966091;28;21198;-80
2022/06/02 11:12:31;;;;;;;11.75;4.93;;;;;;;;;;4965128;28;20059;-77
2022/06/02 11:15:09;;;;;;;13.90;4.60;;;;;;;;;;4963759;28;20112;-78
2022/06/02 11:17:55;;;;;;;9.85;3.60;;;;;;;;;;4968778;28;20063;-77
2022/06/02 11:20:58;;;;;;;10.00;4.03;;;;;;;;;;4967594;28;20042;-75
2022/06/02 11:23:40;;;;;;;10.52;4.22;;;;;;;;;;4964232;28;20073;-74
2022/06/02 11:26:22;;;;;;;10.43;5.05;;;;;;;;;;4965449;28;20064;-75
2022/06/02 11:29:09;;;;;;;12.52;3.90;;;;;;;;;;4962811;28;20051;-75
2022/06/02 11:31:53;;;;;;;10.90;3.80;;;;;;;;;;4966935;28;20253;-72
2022/06/02 11:34:53;;;;;;;12.20;3.92;;;;;;;;;;4962711;28;20138;-73
2022/06/02 11:37:49;;;;;;;11.95;4.13;;;;;;;;;;4959233;28;20078;-72
2022/06/02 11:40:41;;;;;;;10.05;3.60;;;;;;;;;;4961818;28;20493;-73
2022/06/02 11:43:24;;;;;;;15.85;3.70;;;;;;;;;;4964031;28;20535;-70
2022/06/02 11:45:50;;;;;;;9.88;2.90;;;;;;;;;;4960059;28;20055;-70
2022/06/02 11:48:38;;;;;;;10.65;3.42;;;;;;;;;;4959098;28;20094;-70
2022/06/02 11:51:22;;;;;;;11.52;4.10;;;;;;;;;;4962058;28;21110;-70
2022/06/02 11:54:02;;;;;;;12.55;3.47;;;;;;;;;;4958531;28;20134;-72
2022/06/02 11:57:16;;;;;;;8.98;3.25;;;;;;;;;;4957500;28;20051;-71
2022/06/02 12:00:01;;;;;;;10.18;3.88;;;;;;;;;;4882382;29;20044;-72
2022/06/02 12:02:48;;;;;;;14.38;3.70;;;;;;;;;;4880477;29;20092;-73
2022/06/02 12:05:20;;;;;;;8.68;3.47;;;;;;;;;;4880387;29;20586;-69
2022/06/02 12:08:25;;;;;;;14.63;6.72;;;;;;;;;;4874363;29;20366;-68
2022/06/02 12:11:17;;;;;;;60.25;26.27;;;;;;;;;;4883969;29;20075;-71
2022/06/02 12:14:13;;;;;;;21.50;8.43;;;;;;;;;;4883107;29;20128;-74
2022/06/02 12:16:57;;;;;;;15.95;5.95;;;;;;;;;;4884377;29;20068;-73
2022/06/02 12:19:40;;;;;;;24.00;9.82;;;;;;;;;;4882930;29;20064;-72
2022/06/02 12:22:26;;;;;;;17.20;5.38;;;;;;;;;;4878777;29;20700;-71
2022/06/02 12:25:24;;;;;;;12.15;4.20;;;;;;;;;;4881385;29;20048;-72
2022/06/02 12:28:25;;;;;;;15.23;5.25;;;;;;;;;;4861298;29;20342;-74
2022/06/02 12:31:18;;;;;;;16.60;6.25;;;;;;;;;;4936148;28;20539;-71
2022/06/02 12:34:01;;;;;;;13.73;4.93;;;;;;;;;;4964933;28;20054;-75
2022/06/02 12:36:32;;;;;;;10.13;3.95;;;;;;;;;;4962600;28;20417;-77
2022/06/02 12:39:08;;;;;;;14.77;5.60;;;;;;;;;;4965711;28;20504;-77
2022/06/02 12:42:05;;;;;;;9.77;4.13;;;;;;;;;;4983098;28;20070;-74
2022/06/02 12:44:50;;;;;;;12.93;4.53;;;;;;;;;;4965106;28;20046;-76
2022/06/02 12:47:50;;;;;;;12.00;4.35;;;;;;;;;;4967845;28;20057;-75
2022/06/02 12:50:37;;;;;;;15.23;4.70;;;;;;;;;;4967424;28;20481;-74
2022/06/02 12:53:25;;;;;;;15.85;5.18;;;;;;;;;;4971949;28;20780;-74
2022/06/02 12:56:12;;;;;;;10.75;4.15;;;;;;;;;;4969044;28;20042;-73
2022/06/02 12:58:53;;;;;;;12.15;4.03;;;;;;;;;;4967385;28;20480;-73
2022/06/02 13:01:37;;;;;;;13.82;3.70;;;;;;;;;;4963019;28;20046;-69
2022/06/02 13:04:18;;;;;;;8.27;3.15;;;;;;;;;;4961060;28;20121;-75
2022/06/02 13:07:28;;;;;;;11.75;3.50;;;;;;;;;;4959212;28;20058;-70
2022/06/02 13:10:06;;;;;;;12.38;3.70;;;;;;;;;;4961875;28;20081;-73
2022/06/02 13:12:42;;;;;;;9.23;3.58;;;;;;;;;;4959540;28;20067;-68
2022/06/02 13:15:20;;;;;;;7.97;3.17;;;;;;;;;;4961010;28;20055;-69
2022/06/02 13:18:06;;;;;;;12.70;3.25;;;;;;;;;;4963510;28;20062;-71
2022/06/02 13:20:36;;;;;;;8.95;3.63;;;;;;;;;;4964059;28;20061;-72
2022/06/02 13:23:23;;;;;;;10.05;3.72;;;;;;;;;;4964975;28;20039;-70
2022/06/02 13:26:16;;;;;;;10.05;3.78;;;;;;;;;;4961980;28;20523;-69
2022/06/02 13:29:09;;;;;;;19.13;4.20;;;;;;;;;;4942153;28;20145;-70
2022/06/02 13:31:53;;;;;;;9.52;3.17;;;;;;;;;;4959378;28;20055;-68
2022/06/02 13:34:49;;;;;;;12.75;3.35;;;;;;;;;;4963892;28;20039;-71
2022/06/02 13:37:31;;;;;;;8.38;2.83;;;;;;;;;;4962331;28;20047;-69
2022/06/02 13:40:34;;;;;;;8.57;3.10;;;;;;;;;;4964066;28;20046;-71
2022/06/02 13:43:03;;;;;;;9.70;3.00;;;;;;;;;;4966964;28;21100;-73
2022/06/02 13:45:54;;;;;;;9.15;3.28;;;;;;;;;;4964217;28;20054;-68
2022/06/02 13:48:35;;;;;;;10.65;3.40;;;;;;;;;;4961212;28;20059;-74
2022/06/02 13:51:12;;;;;;;9.63;3.22;;;;;;;;;;4960113;28;20059;-71
2022/06/02 13:59:47;;;;;;;12.27;3.13;;;;;;;;;;4961977;28;20051;-72
2022/06/02 14:02:47;;;;;;;7.68;2.88;;;;;;;;;;4962023;28;20141;-72
2022/06/02 14:05:42;;;;;;;6.63;3.10;;;;;;;;;;4968467;28;20145;-72
2022/06/02 14:08:40;;;;;;;15.85;3.08;;;;;;;;;;4961224;28;20059;-70
2022/06/02 14:11:21;;;;;;;9.88;2.83;;;;;;;;;;4962018;28;20065;-70
2022/06/02 14:14:02;;;;;;;11.90;2.88;;;;;;;;;;4962631;28;20038;-71
2022/06/02 14:16:28;;;;;;;11.57;3.20;;;;;;;;;;4959250;28;20061;-72
2022/06/02 14:19:31;;;;;;;8.95;2.70;;;;;;;;;;4965060;28;20042;-71
2022/06/02 14:22:18;;;;;;;10.82;3.42;;;;;;;;;;4961636;28;20059;-71
2022/06/02 14:25:05;;;;;;;8.35;2.85;;;;;;;;;;4937620;28;20054;-73
2022/06/02 14:27:35;;;;;;;12.85;3.05;;;;;;;;;;4962408;28;20058;-70
2022/06/02 14:30:10;;;;;;;10.40;3.38;;;;;;;;;;4960033;28;20050;-72
2022/06/02 14:33:01;;;;;;;12.68;3.10;;;;;;;;;;4965598;28;20211;-73
2022/06/02 14:35:40;;;;;;;12.98;3.22;;;;;;;;;;4969384;28;20034;-72
2022/06/02 14:38:32;;;;;;;19.92;5.22;;;;;;;;;;4966283;28;20057;-75
2022/06/02 14:41:09;;;;;;;10.55;3.20;;;;;;;;;;4961403;28;20058;-73
2022/06/02 14:43:54;;;;;;;33.10;10.13;;;;;;;;;;4957099;28;20149;-71
2022/06/02 14:46:38;;;;;;;20.73;8.13;;;;;;;;;;4951366;28;20145;-74
2022/06/02 14:49:22;;;;;;;12.73;4.57;;;;;;;;;;4961614;28;20888;-73
2022/06/02 14:52:00;;;;;;;16.70;4.68;;;;;;;;;;4960979;28;20046;-71
2022/06/02 14:54:41;;;;;;;17.13;4.07;;;;;;;;;;4966693;28;20065;-72
2022/06/02 14:57:31;;;;;;;9.50;3.45;;;;;;;;;;4965529;28;20053;-78
2022/06/02 15:00:04;;;;;;;11.13;3.88;;;;;;;;;;4962147;28;20516;-70
2022/06/02 15:02:53;;;;;;;9.40;3.20;;;;;;;;;;4966020;28;20051;-70
2022/06/02 15:05:32;;;;;;;9.48;3.45;;;;;;;;;;4961376;28;20043;-73
2022/06/02 15:08:25;;;;;;;11.30;3.25;;;;;;;;;;4961059;28;20134;-72
2022/06/02 15:10:58;;;;;;;7.40;2.87;;;;;;;;;;4956721;28;20046;-73
2022/06/02 15:13:24;;;;;;;10.32;3.65;;;;;;;;;;4959043;28;20651;-70
2022/06/02 15:16:08;;;;;;;11.30;3.22;;;;;;;;;;4969435;28;20053;-72
2022/06/02 15:19:01;;;;;;;9.52;3.28;;;;;;;;;;4964759;28;20060;-72
2022/06/02 15:21:51;;;;;;;17.80;3.47;;;;;;;;;;4967113;28;20078;-71
2022/06/02 15:24:39;;;;;;;10.10;3.40;;;;;;;;;;4967805;28;20058;-70
2022/06/02 15:27:45;;;;;;;8.93;3.58;;;;;;;;;;4966018;28;20488;-70
2022/06/02 15:30:39;;;;;;;7.82;3.05;;;;;;;;;;4962877;28;20055;-72
2022/06/02 15:33:37;;;;;;;14.43;3.60;;;;;;;;;;4961212;28;20062;-70
2022/06/02 15:36:37;;;;;;;11.32;3.85;;;;;;;;;;4964527;28;20065;-71
2022/06/02 15:39:08;;;;;;;12.23;3.38;;;;;;;;;;4963099;28;20152;-72
2022/06/02 15:42:09;;;;;;;9.38;3.10;;;;;;;;;;4963318;28;20058;-72
2022/06/02 15:44:37;;;;;;;10.30;3.20;;;;;;;;;;4964940;28;20154;-76
2022/06/02 15:47:40;;;;;;;11.10;2.97;;;;;;;;;;4967723;28;20926;-74
2022/06/02 15:50:32;;;;;;;11.20;3.67;;;;;;;;;;4962333;28;20054;-73
2022/06/02 15:53:37;;;;;;;16.27;3.85;;;;;;;;;;4967475;28;20066;-73
2022/06/02 15:56:08;;;;;;;;;;;;;;;;;;4966300;28;20057;-71
2022/06/02 15:58:58;;;;;;;12.05;3.83;;;;;;;;;;4969046;28;19936;-74
2022/06/02 16:02:01;;;;;;;11.70;3.38;;;;;;;;;;4964431;28;20158;-73
2022/06/02 16:04:33;;;;;;;11.07;3.40;;;;;;;;;;4963885;28;20077;-76
2022/06/02 16:07:11;;;;;;;8.95;3.38;;;;;;;;;;4964464;28;20117;-76
2022/06/02 16:13:30;;;;;;;12.90;3.95;;;;;;;;;;4965803;28;20075;-71
2022/06/02 16:16:21;;;;;;;12.27;3.47;;;;;;;;;;4957811;28;20055;-71
2022/06/02 16:19:21;;;;;;;12.18;3.80;;;;;;;;;;4965378;28;20077;-74
2022/06/02 16:22:09;;;;;;;16.65;3.90;;;;;;;;;;4968032;28;20058;-70
2022/06/02 16:24:59;;;;;;;16.45;3.97;;;;;;;;;;4965020;28;20118;-71
2022/06/02 16:27:49;;;;;;;12.20;3.80;;;;;;;;;;4965075;28;20057;-74
2022/06/02 16:30:32;;;;;;;10.77;3.67;;;;;;;;;;4964203;28;20109;-70
2022/06/02 16:33:29;;;;;;;11.25;4.15;;;;;;;;;;4958201;28;20043;-73